Time;durP1;ratioP1;P1;durP2;ratioP2;P2;SDS_P1;SDS_P2;PMS_P1;PMS_P2;Temp;Humidity;BMP_temperature;BMP_pressure;BME280_temperature;BME280_humidity;BME280_pressure;Samples;Min_cycle;Max_cycle;Signal;HPM_P1;HPM_P2
2023/06/08 00:00:27;;;;;;;;;;;;;;;10.18;100.00;92924.03;2571931;23;19908;-82
2023/06/08 00:01:35;;;;;;;;;;;;;;;10.18;100.00;92926.72;2584990;22;19904;-82
2023/06/08 00:02:42;;;;;;;;;;;;;;;10.17;100.00;92921.78;2608350;22;19978;-82
2023/06/08 00:03:51;;;;;;;;;;;;;;;10.15;100.00;92919.56;2582604;23;19908;-82
2023/06/08 00:04:57;;;;;;;;;;;;;;;10.03;100.00;92923.63;2560694;23;20287;-82
2023/06/08 00:06:04;;;;;;;;;;;;;;;10.09;100.00;92916.59;2559936;23;19964;-81
2023/06/08 00:07:14;;;;;;;;;;;;;;;10.11;100.00;92918.88;2572526;22;19903;-82
2023/06/08 00:08:23;;;;;;;;;;;;;;;10.06;100.00;92920.13;2582243;23;19985;-82
2023/06/08 00:09:33;;;;;;;;;;;;;;;10.16;100.00;92917.63;2560833;23;20283;-82
2023/06/08 00:10:38;;;;;;;;;;;;;;;10.11;100.00;92920.81;2561179;23;19958;-82
2023/06/08 00:11:49;;;;;;;;;;;;;;;10.09;100.00;92921.19;2571377;23;19969;-82
2023/06/08 00:12:57;;;;;;;;;;;;;;;10.07;100.00;92910.19;2572166;23;19927;-82
2023/06/08 00:14:03;;;;;;;;;;;;;;;10.00;100.00;92905.75;2560266;23;19904;-82
2023/06/08 00:15:13;;;;;;;;;;;;;;;9.98;100.00;92918.78;2559993;23;19982;-82
2023/06/08 00:16:20;;;;;;;;;;;;;;;10.14;100.00;92918.06;2561228;23;20269;-81
2023/06/08 00:17:27;;;;;;;;;;;;;;;10.06;100.00;92914.78;2560070;23;19955;-82
2023/06/08 00:18:36;;;;;;;;;;;;;;;10.15;100.00;92916.13;2560445;23;19931;-82
2023/06/08 00:19:52;;;;;;;;;;;;;;;10.13;100.00;92923.78;2571889;23;19908;-82
2023/06/08 00:21:00;;;;;;;;;;;;;;;10.07;100.00;92913.63;2573073;23;19923;-81
2023/06/08 00:22:12;;;;;;;;;;;;;;;10.02;100.00;92913.38;2584170;22;20333;-82
2023/06/08 00:23:19;;;;;;;;;;;;;;;10.06;100.00;92916.72;2584476;22;19907;-82
2023/06/08 00:24:28;;;;;;;;;;;;;;;10.12;100.00;92911.63;2583669;22;20326;-82
2023/06/08 00:25:35;;;;;;;;;;;;;;;10.01;100.00;92909.19;2584090;22;19931;-82
2023/06/08 00:26:45;;;;;;;;;;;;;;;10.05;100.00;92910.63;2596885;22;19903;-82
2023/06/08 00:27:58;;;;;;;;;;;;;;;10.05;100.00;92907.94;2582106;23;20298;-82
2023/06/08 00:29:04;;;;;;;;;;;;;;;9.98;100.00;92908.09;2572380;23;20248;-82
2023/06/08 00:30:13;;;;;;;;;;;;;;;9.97;100.00;92906.59;2560158;23;19911;-81
2023/06/08 00:31:20;;;;;;;;;;;;;;;9.97;100.00;92906.59;2571245;23;19903;-82
2023/06/08 00:32:26;;;;;;;;;;;;;;;10.02;100.00;92908.78;2585213;22;20708;-82
2023/06/08 00:33:34;;;;;;;;;;;;;;;9.95;100.00;92906.25;2595333;22;19914;-82
2023/06/08 00:34:39;;;;;;;;;;;;;;;9.93;100.00;92907.84;2571401;23;20246;-82
2023/06/08 00:36:09;;;;;;;;;;;;;;;9.95;100.00;92903.59;2570962;23;20382;-81
2023/06/08 00:37:16;;;;;;;;;;;;;;;9.96;100.00;92899.75;2569652;23;19904;-82
2023/06/08 00:38:23;;;;;;;;;;;;;;;9.87;100.00;92902.25;2559519;23;19939;-82
2023/06/08 00:39:30;;;;;;;;;;;;;;;9.77;100.00;92893.31;2583645;22;19907;-82
2023/06/08 00:40:53;;;;;;;;;;;;;;;9.82;100.00;92906.16;2583435;22;19903;-82
2023/06/08 00:42:00;;;;;;;;;;;;;;;9.78;100.00;92902.81;2574453;23;19922;-81
2023/06/08 00:43:06;;;;;;;;;;;;;;;9.81;100.00;92903.91;2583264;22;19910;-82
2023/06/08 00:44:13;;;;;;;;;;;;;;;9.87;100.00;92904.16;2571377;23;19915;-83
2023/06/08 00:45:19;;;;;;;;;;;;;;;9.79;100.00;92904.34;2572691;22;19911;-83
2023/06/08 00:46:26;;;;;;;;;;;;;;;9.71;100.00;92908.34;2594710;22;19980;-82
2023/06/08 00:47:31;;;;;;;;;;;;;;;9.71;100.00;92899.56;2571201;23;19911;-82
2023/06/08 00:48:38;;;;;;;;;;;;;;;9.72;100.00;92907.16;2571400;22;19973;-82
2023/06/08 00:49:45;;;;;;;;;;;;;;;9.67;100.00;92894.31;2570621;23;19903;-83
2023/06/08 00:50:53;;;;;;;;;;;;;;;9.74;100.00;92894.13;2571007;23;19915;-82
2023/06/08 00:52:00;;;;;;;;;;;;;;;9.78;100.00;92894.81;2559991;23;19982;-81
2023/06/08 00:53:07;;;;;;;;;;;;;;;9.69;100.00;92885.88;2571166;23;19975;-82
2023/06/08 00:54:14;;;;;;;;;;;;;;;9.66;100.00;92892.03;2572596;22;19995;-81
2023/06/08 00:55:20;;;;;;;;;;;;;;;9.72;100.00;92893.06;2583588;22;19903;-82
2023/06/08 00:56:27;;;;;;;;;;;;;;;9.74;100.00;92894.13;2570820;23;19910;-81
2023/06/08 00:57:35;;;;;;;;;;;;;;;9.69;100.00;92893.88;2572666;22;19904;-82
2023/06/08 00:58:41;;;;;;;;;;;;;;;9.75;100.00;92893.00;2570949;23;20392;-83
2023/06/08 00:59:51;;;;;;;;;;;;;;;9.72;100.00;92887.72;2559387;23;20419;-81
2023/06/08 01:01:03;;;;;;;;;;;;;;;9.67;100.00;92893.56;2560796;23;19987;-82
2023/06/08 01:02:10;;;;;;;;;;;;;;;9.70;100.00;92896.16;2572133;23;20290;-81
2023/06/08 01:03:20;;;;;;;;;;;;;;;9.69;100.00;92893.88;2572374;22;19979;-82
2023/06/08 01:04:26;;;;;;;;;;;;;;;9.63;100.00;92900.88;2584347;22;20332;-82
2023/06/08 01:05:33;;;;;;;;;;;;;;;9.58;100.00;92905.56;2570687;23;19908;-82
2023/06/08 01:06:44;;;;;;;;;;;;;;;9.61;100.00;92895.19;2559992;23;20512;-82
2023/06/08 01:08:00;;;;;;;;;;;;;;;9.69;100.00;92897.31;2562214;23;19904;-83
2023/06/08 01:09:24;;;;;;;;;;;;;;;9.60;100.00;92897.13;2563263;23;19915;-82
2023/06/08 01:10:33;;;;;;;;;;;;;;;9.51;100.00;92896.94;2565911;23;19930;-83
2023/06/08 01:11:46;;;;;;;;;;;;;;;9.64;100.00;92889.78;2570366;23;19950;-82
2023/06/08 01:13:12;;;;;;;;;;;;;;;9.64;100.00;92895.13;2570424;23;19961;-82
2023/06/08 01:14:24;;;;;;;;;;;;;;;9.63;100.00;92895.56;2571281;22;20426;-81
2023/06/08 01:15:39;;;;;;;;;;;;;;;9.64;100.00;92887.13;2593543;22;20249;-82
2023/06/08 01:16:50;;;;;;;;;;;;;;;9.70;100.00;92890.03;2581007;23;20330;-83
2023/06/08 01:17:58;;;;;;;;;;;;;;;9.61;100.00;92892.53;2584301;22;20519;-82
2023/06/08 01:19:10;;;;;;;;;;;;;;;9.65;100.00;92888.63;2581456;23;19907;-82
2023/06/08 01:20:18;;;;;;;;;;;;;;;9.67;100.00;92888.97;2573299;22;20266;-82
2023/06/08 01:21:40;;;;;;;;;;;;;;;9.66;100.00;92879.47;2569980;23;19915;-83
2023/06/08 01:23:00;;;;;;;;;;;;;;;9.74;100.00;92886.13;2572951;23;20507;-82
2023/06/08 01:24:12;;;;;;;;;;;;;;;9.67;100.00;92888.97;2572913;23;20262;-82
2023/06/08 01:25:20;;;;;;;;;;;;;;;9.68;100.00;92887.06;2561055;23;19912;-81
2023/06/08 01:26:26;;;;;;;;;;;;;;;9.72;100.00;92885.81;2558748;23;19911;-83
2023/06/08 01:27:36;;;;;;;;;;;;;;;9.69;100.00;92888.53;2559283;23;19908;-82
2023/06/08 01:28:42;;;;;;;;;;;;;;;9.67;100.00;92885.56;2570640;23;19923;-83
2023/06/08 01:29:47;;;;;;;;;;;;;;;9.66;100.00;92892.81;2568921;23;19935;-82
2023/06/08 01:30:51;;;;;;;;;;;;;;;9.65;100.00;92890.53;2567869;23;19907;-81
2023/06/08 01:31:54;;;;;;;;;;;;;;;9.67;100.00;92886.31;2569072;22;20318;-82
2023/06/08 01:32:58;;;;;;;;;;;;;;;9.64;100.00;92889.78;2580628;22;20345;-82
2023/06/08 01:34:03;;;;;;;;;;;;;;;9.58;100.00;92886.88;2592673;22;20004;-82
2023/06/08 01:35:06;;;;;;;;;;;;;;;9.56;100.00;92891.84;2568683;23;19927;-82
2023/06/08 01:36:13;;;;;;;;;;;;;;;9.55;100.00;92893.03;2569027;22;20243;-82
2023/06/08 01:37:28;;;;;;;;;;;;;;;9.58;100.00;92888.78;2581395;22;19914;-82
2023/06/08 01:38:40;;;;;;;;;;;;;;;9.49;100.00;92880.59;2582880;22;19904;-83
2023/06/08 01:41:11;;;;;;;;;;;;;;;9.46;100.00;92895.50;2577278;22;19952;-81
2023/06/08 01:42:12;;;;;;;;;;;;;;;9.48;100.00;92887.84;2581965;22;20264;-82
2023/06/08 01:43:16;;;;;;;;;;;;;;;9.42;100.00;92880.75;2580655;22;19977;-82
2023/06/08 01:44:22;;;;;;;;;;;;;;;9.50;100.00;92890.84;2580293;23;19933;-83
2023/06/08 01:45:30;;;;;;;;;;;;;;;9.45;100.00;92883.34;2557400;23;20457;-82
2023/06/08 01:46:35;;;;;;;;;;;;;;;9.42;100.00;92894.84;2557567;23;19908;-82
2023/06/08 01:48:04;;;;;;;;;;;;;;;9.36;100.00;92887.75;2568461;23;20300;-82
2023/06/08 01:49:12;;;;;;;;;;;;;;;9.39;100.00;92886.91;2571890;23;19990;-82
2023/06/08 01:50:16;;;;;;;;;;;;;;;9.36;100.00;92880.50;2558061;23;19982;-81
2023/06/08 01:51:20;;;;;;;;;;;;;;;9.39;100.00;92884.97;2557175;23;19904;-82
2023/06/08 01:52:23;;;;;;;;;;;;;;;9.45;100.00;92887.94;2556755;23;19908;-82
2023/06/08 01:53:28;;;;;;;;;;;;;;;9.36;100.00;92890.41;2556189;23;20338;-82
2023/06/08 01:54:32;;;;;;;;;;;;;;;9.32;100.00;92893.16;2557366;23;19911;-81
2023/06/08 01:55:36;;;;;;;;;;;;;;;9.39;100.00;92886.91;2569043;22;19911;-83
2023/06/08 01:56:39;;;;;;;;;;;;;;;9.32;100.00;92883.22;2567998;23;19916;-82
2023/06/08 01:57:43;;;;;;;;;;;;;;;9.27;100.00;92883.72;2568021;23;19910;-83
2023/06/08 01:58:47;;;;;;;;;;;;;;;9.27;100.00;92890.97;2569287;22;20057;-82
2023/06/08 01:59:51;;;;;;;;;;;;;;;9.27;100.00;92889.06;2568238;23;20307;-82
2023/06/08 02:00:55;;;;;;;;;;;;;;;9.30;100.00;92885.53;2568385;23;19908;-81
2023/06/08 02:02:02;;;;;;;;;;;;;;;9.37;100.00;92883.91;2581005;22;20342;-82
2023/06/08 02:03:08;;;;;;;;;;;;;;;9.33;100.00;92881.31;2568989;23;19908;-82
2023/06/08 02:04:14;;;;;;;;;;;;;;;9.26;100.00;92887.56;2580940;22;19907;-82
2023/06/08 02:05:19;;;;;;;;;;;;;;;9.27;100.00;92889.06;2568665;23;19904;-82
2023/06/08 02:06:24;;;;;;;;;;;;;;;9.24;100.00;92884.53;2556946;23;20506;-82
2023/06/08 02:07:31;;;;;;;;;;;;;;;9.33;100.00;92883.97;2581419;22;19907;-82
2023/06/08 02:08:34;;;;;;;;;;;;;;;9.27;100.00;92890.97;2569168;23;19904;-82
2023/06/08 02:09:39;;;;;;;;;;;;;;;9.22;100.00;92884.22;2569240;22;19904;-82
2023/06/08 02:10:46;;;;;;;;;;;;;;;9.31;100.00;92880.97;2580054;23;20326;-82
2023/06/08 02:11:52;;;;;;;;;;;;;;;9.22;100.00;92880.75;2557470;23;20315;-82
2023/06/08 02:12:57;;;;;;;;;;;;;;;9.13;100.00;92881.34;2557070;23;20250;-82
2023/06/08 02:14:02;;;;;;;;;;;;;;;9.20;100.00;92877.78;2569325;22;19963;-82
2023/06/08 02:15:07;;;;;;;;;;;;;;;9.16;100.00;92880.50;2581236;22;19907;-81
2023/06/08 02:16:14;;;;;;;;;;;;;;;9.15;100.00;92886.25;2579887;23;19907;-82
2023/06/08 02:17:25;;;;;;;;;;;;;;;9.06;100.00;92886.81;2579805;23;19903;-82
2023/06/08 02:18:34;;;;;;;;;;;;;;;9.13;100.00;92881.34;2582394;22;19914;-81
2023/06/08 02:19:40;;;;;;;;;;;;;;;8.96;100.00;92885.88;2569466;23;19931;-83
2023/06/08 02:20:45;;;;;;;;;;;;;;;8.92;100.00;92882.50;2557127;23;19986;-83
2023/06/08 02:21:49;;;;;;;;;;;;;;;8.96;100.00;92879.78;2557182;23;19939;-82
2023/06/08 02:22:55;;;;;;;;;;;;;;;8.96;100.00;92882.44;2568420;22;19935;-82
2023/06/08 02:23:59;;;;;;;;;;;;;;;9.14;100.00;92879.44;2568728;23;19943;-80
2023/06/08 02:25:10;;;;;;;;;;;;;;;9.00;100.00;92880.44;2557064;23;19915;-82
2023/06/08 02:26:16;;;;;;;;;;;;;;;8.90;100.00;92884.81;2570136;23;19904;-83
2023/06/08 02:27:21;;;;;;;;;;;;;;;8.92;100.00;92879.84;2568375;23;20053;-83
2023/06/08 02:28:27;;;;;;;;;;;;;;;8.97;100.00;92892.69;2568400;23;20354;-83
2023/06/08 02:29:32;;;;;;;;;;;;;;;8.97;100.00;92883.94;2568884;23;19907;-82
2023/06/08 02:30:38;;;;;;;;;;;;;;;9.01;100.00;92888.03;2569191;22;19947;-82
2023/06/08 02:31:43;;;;;;;;;;;;;;;9.00;100.00;92886.53;2580567;22;19986;-82
2023/06/08 02:32:53;;;;;;;;;;;;;;;8.99;100.00;92881.59;2580216;23;19945;-82
2023/06/08 02:33:56;;;;;;;;;;;;;;;8.97;100.00;92882.03;2558799;23;19919;-81
2023/06/08 02:35:03;;;;;;;;;;;;;;;9.02;100.00;92883.47;2555971;23;19911;-81
2023/06/08 02:36:10;;;;;;;;;;;;;;;8.94;100.00;92887.41;2558385;23;19998;-82
2023/06/08 02:37:15;;;;;;;;;;;;;;;8.89;100.00;92879.91;2568961;23;19904;-82
2023/06/08 02:38:21;;;;;;;;;;;;;;;8.85;100.00;92887.22;2568704;23;19919;-82
2023/06/08 02:39:28;;;;;;;;;;;;;;;8.90;100.00;92886.75;2569585;22;20428;-81
2023/06/08 02:40:31;;;;;;;;;;;;;;;8.93;100.00;92885.94;2568401;23;19907;-82
2023/06/08 02:41:37;;;;;;;;;;;;;;;8.88;100.00;92878.41;2567887;22;19907;-82
2023/06/08 02:42:40;;;;;;;;;;;;;;;8.87;100.00;92883.00;2568450;23;20308;-81
2023/06/08 02:43:45;;;;;;;;;;;;;;;8.81;100.00;92889.94;2555896;23;20235;-83
2023/06/08 02:44:49;;;;;;;;;;;;;;;8.80;100.00;92889.19;2569302;22;20343;-82
2023/06/08 02:45:53;;;;;;;;;;;;;;;8.78;100.00;92885.44;2568383;23;19907;-83
2023/06/08 02:46:59;;;;;;;;;;;;;;;8.81;100.00;92882.69;2567840;23;19904;-83
2023/06/08 02:48:07;;;;;;;;;;;;;;;8.83;100.00;92885.72;2558510;23;19908;-82
2023/06/08 02:49:11;;;;;;;;;;;;;;;8.90;100.00;92881.41;2557455;23;19915;-82
2023/06/08 02:50:14;;;;;;;;;;;;;;;8.80;100.00;92878.53;2555989;23;19927;-83
2023/06/08 02:51:20;;;;;;;;;;;;;;;8.78;100.00;92880.09;2567714;23;19919;-82
2023/06/08 02:52:25;;;;;;;;;;;;;;;8.80;100.00;92877.78;2568526;23;19907;-82
2023/06/08 02:53:28;;;;;;;;;;;;;;;8.82;100.00;92880.78;2569339;22;19904;-83
2023/06/08 02:54:34;;;;;;;;;;;;;;;8.74;100.00;92879.44;2567928;23;19978;-82
2023/06/08 02:55:38;;;;;;;;;;;;;;;8.86;100.00;92884.13;2557005;23;20245;-82
2023/06/08 02:56:45;;;;;;;;;;;;;;;8.80;100.00;92877.78;2581172;22;20214;-82
2023/06/08 02:57:51;;;;;;;;;;;;;;;8.75;100.00;92883.59;2567946;23;20027;-82
2023/06/08 02:58:56;;;;;;;;;;;;;;;8.78;100.00;92885.44;2557156;23;19912;-82
2023/06/08 03:00:03;;;;;;;;;;;;;;;8.74;100.00;92874.09;2557020;23;19959;-81
2023/06/08 03:01:14;;;;;;;;;;;;;;;8.71;100.00;92888.25;2579438;23;19985;-81
2023/06/08 03:02:21;;;;;;;;;;;;;;;8.84;100.00;92878.47;2571654;22;20357;-82
2023/06/08 03:03:23;;;;;;;;;;;;;;;8.77;100.00;92887.34;2568472;23;20243;-82
2023/06/08 03:04:30;;;;;;;;;;;;;;;8.67;100.00;92885.63;2555693;23;19920;-82
2023/06/08 03:05:39;;;;;;;;;;;;;;;8.80;100.00;92883.88;2568747;23;20113;-81
2023/06/08 03:06:46;;;;;;;;;;;;;;;8.80;100.00;92889.19;2569088;23;19930;-82
2023/06/08 03:07:53;;;;;;;;;;;;;;;8.67;100.00;92882.22;2568024;23;19904;-81
2023/06/08 03:09:03;;;;;;;;;;;;;;;8.68;100.00;92881.06;2557380;23;19959;-81
2023/06/08 03:10:10;;;;;;;;;;;;;;;8.67;100.00;92884.88;2559099;23;20315;-82
2023/06/08 03:11:17;;;;;;;;;;;;;;;8.66;100.00;92883.38;2557176;23;19960;-82
2023/06/08 03:12:22;;;;;;;;;;;;;;;8.61;100.00;92875.88;2557300;23;19915;-82
2023/06/08 03:13:29;;;;;;;;;;;;;;;8.60;100.00;92879.69;2569334;22;19912;-82
2023/06/08 03:14:38;;;;;;;;;;;;;;;8.72;100.00;92877.16;2593500;22;19997;-82
2023/06/08 03:15:45;;;;;;;;;;;;;;;8.68;100.00;92881.06;2592623;22;19995;-82
2023/06/08 03:16:49;;;;;;;;;;;;;;;8.60;100.00;92879.69;2569005;23;20170;-82
2023/06/08 03:17:52;;;;;;;;;;;;;;;8.47;100.00;92880.28;2569142;23;20378;-82
2023/06/08 03:18:56;;;;;;;;;;;;;;;8.42;100.00;92872.75;2557398;23;19979;-82
2023/06/08 03:20:03;;;;;;;;;;;;;;;8.47;100.00;92882.97;2569864;22;19907;-82
2023/06/08 03:21:31;;;;;;;;;;;;;;;8.57;100.00;92878.59;2569356;23;19907;-82
2023/06/08 03:22:55;;;;;;;;;;;;;;;8.55;100.00;92875.56;2573770;23;19985;-81
2023/06/08 03:23:59;;;;;;;;;;;;;;;8.50;100.00;92874.13;2565492;23;19990;-81
2023/06/08 03:25:22;;;;;;;;;;;;;;;8.54;100.00;92869.50;2568813;23;19915;-82
2023/06/08 03:26:28;;;;;;;;;;;;;;;8.50;100.00;92876.78;2576959;22;20653;-82
2023/06/08 03:27:46;;;;;;;;;;;;;;;8.48;100.00;92871.13;2569379;23;20280;-82
2023/06/08 03:28:50;;;;;;;;;;;;;;;8.46;100.00;92875.34;2575305;22;20280;-82
2023/06/08 03:29:54;;;;;;;;;;;;;;;8.55;100.00;92870.25;2593329;22;19910;-82
2023/06/08 03:31:00;;;;;;;;;;;;;;;8.51;100.00;92869.56;2580745;22;20319;-84
2023/06/08 03:32:03;;;;;;;;;;;;;;;8.38;100.00;92880.03;2569542;23;20351;-81
2023/06/08 03:33:08;;;;;;;;;;;;;;;8.44;100.00;92873.13;2568602;23;19962;-82
2023/06/08 03:34:11;;;;;;;;;;;;;;;8.40;100.00;92875.09;2569811;22;19912;-83
2023/06/08 03:35:16;;;;;;;;;;;;;;;8.43;100.00;92868.94;2580422;22;20144;-82
2023/06/08 03:36:20;;;;;;;;;;;;;;;8.42;100.00;92872.75;2569329;23;19908;-82
2023/06/08 03:37:22;;;;;;;;;;;;;;;8.42;100.00;92875.41;2557008;23;19908;-82
2023/06/08 03:38:27;;;;;;;;;;;;;;;8.42;100.00;92867.44;2568669;22;20397;-82
2023/06/08 03:39:32;;;;;;;;;;;;;;;8.41;100.00;92871.25;2568471;23;19908;-82
2023/06/08 03:40:38;;;;;;;;;;;;;;;8.37;100.00;92870.56;2557452;23;20431;-82
2023/06/08 03:41:43;;;;;;;;;;;;;;;8.41;100.00;92873.16;2557999;23;19908;-82
2023/06/08 03:42:44;;;;;;;;;;;;;;;8.40;100.00;92869.75;2557414;23;20347;-83
2023/06/08 03:43:50;;;;;;;;;;;;;;;8.44;100.00;92870.44;2555398;23;19908;-83
2023/06/08 03:44:53;;;;;;;;;;;;;;;8.37;100.00;92873.22;2570806;22;19903;-82
2023/06/08 03:45:58;;;;;;;;;;;;;;;8.38;100.00;92869.41;2568940;23;19915;-82
2023/06/08 03:47:03;;;;;;;;;;;;;;;8.38;100.00;92877.38;2569195;23;19915;-82
2023/06/08 03:48:08;;;;;;;;;;;;;;;8.61;100.00;92875.88;2557273;23;20266;-83
2023/06/08 03:49:12;;;;;;;;;;;;;;;8.58;100.00;92875.50;2557441;23;19908;-82
2023/06/08 03:50:18;;;;;;;;;;;;;;;8.53;100.00;92875.25;2556715;23;20351;-83
2023/06/08 03:51:23;;;;;;;;;;;;;;;8.41;100.00;92870.50;2568768;23;19911;-83
2023/06/08 03:52:26;;;;;;;;;;;;;;;8.44;100.00;92875.03;2569402;23;19915;-83
2023/06/08 03:53:32;;;;;;;;;;;;;;;8.47;100.00;92872.31;2581068;22;20230;-82
2023/06/08 03:54:36;;;;;;;;;;;;;;;8.46;100.00;92876.09;2580655;23;19908;-83
2023/06/08 03:55:40;;;;;;;;;;;;;;;8.41;100.00;92876.59;2568687;23;19957;-82
2023/06/08 03:56:45;;;;;;;;;;;;;;;8.43;100.00;92871.63;2569314;22;20287;-82
2023/06/08 03:57:49;;;;;;;;;;;;;;;8.45;100.00;92869.28;2582023;22;19980;-83
2023/06/08 03:58:56;;;;;;;;;;;;;;;8.48;100.00;92876.47;2568615;23;19916;-83
2023/06/08 04:00:04;;;;;;;;;;;;;;;8.51;100.00;92877.53;2569348;23;19927;-82
2023/06/08 04:01:10;;;;;;;;;;;;;;;8.44;100.00;92875.78;2559154;23;19912;-82
2023/06/08 04:02:18;;;;;;;;;;;;;;;8.44;100.00;92873.13;2570570;22;19904;-82
2023/06/08 04:03:25;;;;;;;;;;;;;;;8.49;100.00;92871.88;2569083;23;19947;-83
2023/06/08 04:04:34;;;;;;;;;;;;;;;8.47;100.00;92874.97;2569354;23;19954;-83
2023/06/08 04:05:41;;;;;;;;;;;;;;;8.52;100.00;92877.16;2571579;22;19904;-83
2023/06/08 04:06:46;;;;;;;;;;;;;;;8.57;100.00;92875.94;2569360;23;20334;-83
2023/06/08 04:07:55;;;;;;;;;;;;;;;8.54;100.00;92874.81;2557237;23;20287;-82
2023/06/08 04:08:57;;;;;;;;;;;;;;;8.58;100.00;92869.44;2571547;22;19908;-82
2023/06/08 04:10:01;;;;;;;;;;;;;;;8.57;100.00;92875.94;2568268;23;19924;-82
2023/06/08 04:11:08;;;;;;;;;;;;;;;8.57;100.00;92871.34;2568977;22;19986;-83
2023/06/08 04:12:11;;;;;;;;;;;;;;;8.63;100.00;92876.22;2569641;23;19975;-82
2023/06/08 04:13:17;;;;;;;;;;;;;;;8.65;100.00;92879.97;2555985;23;19983;-83
2023/06/08 04:14:23;;;;;;;;;;;;;;;8.67;100.00;92874.22;2581343;22;19904;-82
2023/06/08 04:15:27;;;;;;;;;;;;;;;8.63;100.00;92873.53;2569151;23;19908;-83
2023/06/08 04:16:30;;;;;;;;;;;;;;;8.67;100.00;92874.97;2571177;22;19904;-82
2023/06/08 04:17:34;;;;;;;;;;;;;;;8.60;100.00;92877.75;2581015;22;19911;-82
2023/06/08 04:18:39;;;;;;;;;;;;;;;8.63;100.00;92876.22;2569326;22;20006;-82
2023/06/08 04:19:44;;;;;;;;;;;;;;;8.67;100.00;92869.66;2568605;23;20240;-82
2023/06/08 04:20:50;;;;;;;;;;;;;;;8.71;100.00;92870.34;2570376;22;19907;-82
2023/06/08 04:21:56;;;;;;;;;;;;;;;8.73;100.00;92869.91;2567864;23;19907;-83
2023/06/08 04:23:02;;;;;;;;;;;;;;;8.80;100.00;92872.47;2557295;23;20251;-82
2023/06/08 04:24:05;;;;;;;;;;;;;;;8.82;100.00;92867.47;2570185;22;19959;-82
2023/06/08 04:25:09;;;;;;;;;;;;;;;8.82;100.00;92872.78;2581142;22;19958;-83
2023/06/08 04:26:13;;;;;;;;;;;;;;;8.84;100.00;92870.47;2568430;23;19904;-81
2023/06/08 04:27:19;;;;;;;;;;;;;;;8.87;100.00;92872.34;2569055;22;19903;-83
2023/06/08 04:28:25;;;;;;;;;;;;;;;8.89;100.00;92870.00;2568952;23;19908;-82
2023/06/08 04:29:30;;;;;;;;;;;;;;;8.98;100.00;92864.88;2570217;22;19915;-83
2023/06/08 04:30:35;;;;;;;;;;;;;;;9.01;100.00;92876.63;2568332;23;19911;-83
2023/06/08 04:31:41;;;;;;;;;;;;;;;9.08;100.00;92866.56;2568335;23;19998;-83
2023/06/08 04:32:46;;;;;;;;;;;;;;;9.12;100.00;92868.41;2557900;23;20382;-82
2023/06/08 04:33:56;;;;;;;;;;;;;;;9.12;100.00;92868.41;2571282;22;19908;-82
2023/06/08 04:35:03;;;;;;;;;;;;;;;9.13;100.00;92867.25;2569755;23;20263;-81
2023/06/08 04:36:06;;;;;;;;;;;;;;;9.17;100.00;92860.66;2558432;23;19904;-82
2023/06/08 04:37:13;;;;;;;;;;;;;;;9.23;100.00;92866.28;2555965;23;19908;-83
2023/06/08 04:38:17;;;;;;;;;;;;;;;9.28;100.00;92869.22;2557733;23;19915;-82
2023/06/08 04:39:19;;;;;;;;;;;;;;;9.32;100.00;92869.88;2568138;23;19915;-82
2023/06/08 04:40:25;;;;;;;;;;;;;;;9.38;100.00;92867.47;2556129;23;19994;-82
2023/06/08 04:41:55;;;;;;;;;;;;;;;9.43;100.00;92866.25;2556713;23;20316;-83
2023/06/08 04:42:59;;;;;;;;;;;;;;;9.52;100.00;92866.41;2564838;23;20446;-82
2023/06/08 04:44:01;;;;;;;;;;;;;;;9.56;100.00;92865.19;2569630;22;19911;-82
2023/06/08 04:45:03;;;;;;;;;;;;;;;9.65;100.00;92864.59;2580750;23;20009;-82
2023/06/08 04:46:07;;;;;;;;;;;;;;;9.73;100.00;92865.19;2568819;22;19990;-81
2023/06/08 04:47:09;;;;;;;;;;;;;;;9.80;100.00;92867.72;2568386;23;20339;-83
2023/06/08 04:48:10;;;;;;;;;;;;;;;9.87;100.00;92872.88;2555916;23;19978;-82
2023/06/08 04:49:12;;;;;;;;;;;;;;;9.94;100.00;92869.31;2568638;22;19977;-81
2023/06/08 04:50:14;;;;;;;;;;;;;;;9.99;100.00;92869.56;2568229;23;19911;-82
2023/06/08 04:51:15;;;;;;;;;;;;;;;10.05;100.00;92861.78;2568416;22;19903;-82
2023/06/08 04:52:16;;;;;;;;;;;;;;;10.13;100.00;92865.03;2568287;23;19935;-83
2023/06/08 04:53:17;;;;;;;;;;;;;;;10.16;100.00;92864.22;2555770;23;20283;-83
2023/06/08 04:54:21;;;;;;;;;;;;;;;10.21;100.00;92864.44;2580913;23;19942;-82
2023/06/08 04:55:23;;;;;;;;;;;;;;;10.26;100.00;92866.63;2569021;23;20271;-82
2023/06/08 04:56:24;;;;;;;;;;;;;;;10.28;100.00;92864.31;2580833;22;20385;-81
2023/06/08 04:57:25;;;;;;;;;;;;;;;10.31;100.00;92860.78;2592980;22;19914;-82
2023/06/08 04:58:26;;;;;;;;;;;;;;;10.36;100.00;92864.91;2580168;22;20356;-82
2023/06/08 04:59:27;;;;;;;;;;;;;;;10.38;100.00;92867.88;2593217;22;19907;-82
2023/06/08 05:00:28;;;;;;;;;;;;;;;10.37;100.00;92866.38;2580559;23;19904;-83
2023/06/08 05:01:29;;;;;;;;;;;;;;;10.39;100.00;92864.03;2580818;23;19903;-82
2023/06/08 05:02:30;;;;;;;;;;;;;;;10.43;100.00;92867.38;2568157;23;19908;-83
2023/06/08 05:03:31;;;;;;;;;;;;;;;10.45;100.00;92869.63;2568394;23;19919;-82
2023/06/08 05:04:32;;;;;;;;;;;;;;;10.42;100.00;92868.53;2568093;23;19952;-82
2023/06/08 05:05:33;;;;;;;;;;;;;;;10.47;100.00;92868.03;2580637;22;19942;-83
2023/06/08 05:06:34;;;;;;;;;;;;;;;10.48;100.00;92871.44;2579972;23;19918;-82
2023/06/08 05:07:35;;;;;;;;;;;;;;;10.46;100.00;92871.88;2556304;23;20404;-83
2023/06/08 05:08:36;;;;;;;;;;;;;;;10.50;100.00;92874.47;2568048;23;19911;-81
2023/06/08 05:09:37;;;;;;;;;;;;;;;10.53;100.00;92866.34;2555334;23;20425;-82
2023/06/08 05:10:38;;;;;;;;;;;;;;;10.50;100.00;92869.13;2580350;22;19903;-82
2023/06/08 05:11:39;;;;;;;;;;;;;;;10.54;100.00;92873.22;2580817;23;19911;-82
2023/06/08 05:12:40;;;;;;;;;;;;;;;10.59;100.00;92874.63;2580510;22;19912;-82
2023/06/08 05:13:40;;;;;;;;;;;;;;;10.58;100.00;92867.78;2568163;23;20354;-82
2023/06/08 05:14:41;;;;;;;;;;;;;;;10.61;100.00;92872.25;2555840;23;19908;-82
2023/06/08 05:15:42;;;;;;;;;;;;;;;10.66;100.00;92871.00;2567879;23;19958;-83
2023/06/08 05:16:43;;;;;;;;;;;;;;;10.66;100.00;92874.41;2580905;23;20396;-82
2023/06/08 05:17:44;;;;;;;;;;;;;;;10.70;100.00;92874.31;2579868;23;19907;-81
2023/06/08 05:18:45;;;;;;;;;;;;;;;10.74;100.00;92878.41;2568271;23;19907;-83
2023/06/08 05:19:45;;;;;;;;;;;;;;;10.76;100.00;92878.75;2568283;23;19904;-82
2023/06/08 05:20:47;;;;;;;;;;;;;;;10.80;100.00;92876.75;2580300;23;19907;-82
2023/06/08 05:21:48;;;;;;;;;;;;;;;10.84;100.00;92877.41;2581035;23;19910;-82
2023/06/08 05:22:49;;;;;;;;;;;;;;;10.92;100.00;92879.84;2555558;23;19987;-82
2023/06/08 05:23:49;;;;;;;;;;;;;;;10.98;100.00;92868.22;2568424;23;19912;-83
2023/06/08 05:24:50;;;;;;;;;;;;;;;11.03;100.00;92869.63;2567298;23;19908;-82
2023/06/08 05:25:51;;;;;;;;;;;;;;;11.02;100.00;92871.56;2555452;23;19915;-82
2023/06/08 05:26:53;;;;;;;;;;;;;;;11.09;100.00;92867.94;2555853;23;19908;-82
2023/06/08 05:27:59;;;;;;;;;;;;;;;11.12;100.00;92867.09;2568114;23;20458;-83
2023/06/08 05:29:04;;;;;;;;;;;;;;;11.19;100.00;92871.47;2568934;23;20382;-82
2023/06/08 05:30:09;;;;;;;;;;;;;;;11.20;100.00;92864.97;2569749;22;19915;-82
2023/06/08 05:31:14;;;;;;;;;;;;;;;11.25;100.00;92865.19;2567937;23;20292;-82
2023/06/08 05:32:21;;;;;;;;;;;;;;;11.29;100.00;92865.84;2580189;23;20239;-81
2023/06/08 05:33:25;;;;;;;;;;;;;;;11.35;100.00;92860.69;2568984;23;20015;-82
2023/06/08 05:34:28;;;;;;;;;;;;;;;11.39;100.00;92863.28;2568572;22;20519;-83
2023/06/08 05:35:32;;;;;;;;;;;;;;;11.45;100.00;92864.25;2568391;23;19915;-82
2023/06/08 05:36:38;;;;;;;;;;;;;;;11.47;100.00;92861.91;2569396;22;19914;-82
2023/06/08 05:37:44;;;;;;;;;;;;;;;11.51;100.00;92860.63;2568988;23;20312;-82
2023/06/08 05:38:50;;;;;;;;;;;;;;;11.57;100.00;92863.50;2569792;22;19907;-82
2023/06/08 05:39:56;;;;;;;;;;;;;;;11.63;100.00;92867.13;2580662;22;19904;-82
2023/06/08 05:41:02;;;;;;;;;;;;;;;11.64;100.00;92865.97;2568368;23;20274;-82
2023/06/08 05:42:08;;;;;;;;;;;;;;;11.65;100.00;92864.06;2569332;23;20010;-83
2023/06/08 05:43:13;;;;;;;;;;;;;;;11.72;100.00;92869.94;2556615;23;19919;-82
2023/06/08 05:44:18;;;;;;;;;;;;;;;11.77;100.00;92868.66;2557630;23;19912;-82
2023/06/08 05:45:25;;;;;;;;;;;;;;;11.79;100.00;92868.97;2569670;22;19908;-82